sensor_id;sensor_type;location;lat;lon;timestamp;pressure;altitude;pressure_sealevel;temperature;humidity
7962;BME280;4026;43.652;24.906;2023-04-27T00:00:58;98873.81;;;9.34;100.00
7962;BME280;4026;43.652;24.906;2023-04-27T00:03:25;98876.72;;;9.29;100.00
7962;BME280;4026;43.652;24.906;2023-04-27T00:05:54;98878.25;;;8.95;100.00
7962;BME280;4026;43.652;24.906;2023-04-27T00:08:21;98888.09;;;9.12;100.00
7962;BME280;4026;43.652;24.906;2023-04-27T00:10:48;98888.88;;;9.25;100.00
7962;BME280;4026;43.652;24.906;2023-04-27T00:13:14;98886.47;;;9.11;100.00
7962;BME280;4026;43.652;24.906;2023-04-27T00:15:41;98901.63;;;9.25;100.00
7962;BME280;4026;43.652;24.906;2023-04-27T00:18:09;98898.00;;;9.41;100.00
7962;BME280;4026;43.652;24.906;2023-04-27T00:20:36;98898.44;;;9.35;100.00
7962;BME280;4026;43.652;24.906;2023-04-27T00:23:06;98901.72;;;9.37;100.00
7962;BME280;4026;43.652;24.906;2023-04-27T00:25:33;98901.88;;;9.34;100.00
7962;BME280;4026;43.652;24.906;2023-04-27T00:28:00;98911.25;;;9.46;100.00
7962;BME280;4026;43.652;24.906;2023-04-27T00:30:27;98914.13;;;9.41;100.00
7962;BME280;4026;43.652;24.906;2023-04-27T00:32:53;98907.22;;;9.30;100.00
7962;BME280;4026;43.652;24.906;2023-04-27T00:35:20;98909.31;;;9.13;100.00
7962;BME280;4026;43.652;24.906;2023-04-27T00:37:47;98897.78;;;9.07;100.00
7962;BME280;4026;43.652;24.906;2023-04-27T00:40:16;98908.41;;;9.14;100.00
7962;BME280;4026;43.652;24.906;2023-04-27T00:42:42;98902.47;;;9.13;100.00
7962;BME280;4026;43.652;24.906;2023-04-27T00:45:10;98912.00;;;8.98;100.00
7962;BME280;4026;43.652;24.906;2023-04-27T00:47:37;98918.19;;;9.07;100.00
7962;BME280;4026;43.652;24.906;2023-04-27T00:50:05;98908.34;;;8.77;100.00
7962;BME280;4026;43.652;24.906;2023-04-27T00:52:35;98907.97;;;8.70;100.00
7962;BME280;4026;43.652;24.906;2023-04-27T00:55:02;98904.19;;;8.63;100.00
7962;BME280;4026;43.652;24.906;2023-04-27T00:57:32;98913.53;;;8.75;100.00
7962;BME280;4026;43.652;24.906;2023-04-27T00:59:59;98917.31;;;8.82;100.00
7962;BME280;4026;43.652;24.906;2023-04-27T01:02:26;98915.63;;;8.70;100.00
7962;BME280;4026;43.652;24.906;2023-04-27T01:04:54;98911.44;;;8.56;100.00
7962;BME280;4026;43.652;24.906;2023-04-27T01:07:24;98923.66;;;8.38;100.00
7962;BME280;4026;43.652;24.906;2023-04-27T01:09:51;98920.19;;;8.39;100.00
7962;BME280;4026;43.652;24.906;2023-04-27T01:12:18;98924.06;;;8.45;100.00
7962;BME280;4026;43.652;24.906;2023-04-27T01:14:46;98919.56;;;8.23;100.00
7962;BME280;4026;43.652;24.906;2023-04-27T01:17:13;98920.66;;;8.19;100.00
7962;BME280;4026;43.652;24.906;2023-04-27T01:19:40;98929.00;;;8.21;100.00
7962;BME280;4026;43.652;24.906;2023-04-27T01:22:06;98924.66;;;8.23;100.00
7962;BME280;4026;43.652;24.906;2023-04-27T01:24:35;98924.94;;;8.31;100.00
7962;BME280;4026;43.652;24.906;2023-04-27T01:27:02;98934.00;;;8.23;100.00
7962;BME280;4026;43.652;24.906;2023-04-27T01:29:29;98928.50;;;8.16;100.00
7962;BME280;4026;43.652;24.906;2023-04-27T01:31:56;98921.38;;;8.21;100.00
7962;BME280;4026;43.652;24.906;2023-04-27T01:34:23;98923.09;;;8.33;100.00
7962;BME280;4026;43.652;24.906;2023-04-27T01:36:49;98919.84;;;8.31;100.00
7962;BME280;4026;43.652;24.906;2023-04-27T01:39:16;98921.97;;;8.25;100.00
7962;BME280;4026;43.652;24.906;2023-04-27T01:41:44;98923.78;;;8.10;100.00
7962;BME280;4026;43.652;24.906;2023-04-27T01:44:11;98916.63;;;7.89;100.00
7962;BME280;4026;43.652;24.906;2023-04-27T01:46:38;98920.09;;;7.88;100.00
7962;BME280;4026;43.652;24.906;2023-04-27T01:49:05;98918.25;;;7.90;100.00
7962;BME280;4026;43.652;24.906;2023-04-27T01:51:32;98908.88;;;7.91;100.00
7962;BME280;4026;43.652;24.906;2023-04-27T01:53:59;98910.41;;;7.93;100.00
7962;BME280;4026;43.652;24.906;2023-04-27T01:56:25;98911.41;;;7.78;100.00
7962;BME280;4026;43.652;24.906;2023-04-27T01:58:54;98909.44;;;7.69;100.00
7962;BME280;4026;43.652;24.906;2023-04-27T02:01:20;98919.63;;;7.69;100.00
7962;BME280;4026;43.652;24.906;2023-04-27T02:03:47;98923.25;;;7.65;100.00
7962;BME280;4026;43.652;24.906;2023-04-27T02:06:14;98916.50;;;7.51;100.00
7962;BME280;4026;43.652;24.906;2023-04-27T02:08:41;98917.94;;;7.55;100.00
7962;BME280;4026;43.652;24.906;2023-04-27T02:11:08;98917.13;;;7.55;100.00
7962;BME280;4026;43.652;24.906;2023-04-27T02:13:35;98921.91;;;7.32;100.00
7962;BME280;4026;43.652;24.906;2023-04-27T02:16:03;98922.41;;;7.52;100.00
7962;BME280;4026;43.652;24.906;2023-04-27T02:18:30;98920.28;;;7.31;100.00
7962;BME280;4026;43.652;24.906;2023-04-27T02:20:58;98921.00;;;7.33;100.00
7962;BME280;4026;43.652;24.906;2023-04-27T02:23:25;98926.16;;;7.32;100.00
7962;BME280;4026;43.652;24.906;2023-04-27T02:25:51;98930.88;;;7.38;100.00
7962;BME280;4026;43.652;24.906;2023-04-27T02:28:18;98926.44;;;7.27;100.00
7962;BME280;4026;43.652;24.906;2023-04-27T02:30:45;98926.31;;;7.16;100.00
7962;BME280;4026;43.652;24.906;2023-04-27T02:33:13;98933.00;;;7.17;100.00
7962;BME280;4026;43.652;24.906;2023-04-27T02:35:40;98931.00;;;7.22;100.00
7962;BME280;4026;43.652;24.906;2023-04-27T02:38:07;98928.75;;;7.17;100.00
7962;BME280;4026;43.652;24.906;2023-04-27T02:40:34;98930.66;;;6.99;100.00
7962;BME280;4026;43.652;24.906;2023-04-27T02:43:01;98938.28;;;7.14;100.00
7962;BME280;4026;43.652;24.906;2023-04-27T02:45:28;98938.66;;;7.08;100.00
7962;BME280;4026;43.652;24.906;2023-04-27T02:47:55;98938.09;;;7.17;100.00
7962;BME280;4026;43.652;24.906;2023-04-27T02:50:24;98935.19;;;7.09;100.00
7962;BME280;4026;43.652;24.906;2023-04-27T02:52:50;98937.00;;;7.21;100.00
7962;BME280;4026;43.652;24.906;2023-04-27T02:55:17;98930.34;;;7.18;100.00
7962;BME280;4026;43.652;24.906;2023-04-27T02:57:45;98940.09;;;7.12;100.00
7962;BME280;4026;43.652;24.906;2023-04-27T03:00:13;98936.66;;;7.13;100.00
7962;BME280;4026;43.652;24.906;2023-04-27T03:02:40;98939.53;;;7.21;100.00
7962;BME280;4026;43.652;24.906;2023-04-27T03:05:07;98939.16;;;7.27;100.00
7962;BME280;4026;43.652;24.906;2023-04-27T03:07:36;98937.00;;;7.21;100.00
7962;BME280;4026;43.652;24.906;2023-04-27T03:10:04;98950.25;;;7.12;100.00
7962;BME280;4026;43.652;24.906;2023-04-27T03:12:30;98943.56;;;7.11;100.00
7962;BME280;4026;43.652;24.906;2023-04-27T03:14:57;98953.72;;;7.11;100.00
7962;BME280;4026;43.652;24.906;2023-04-27T03:17:25;98950.97;;;7.28;100.00
7962;BME280;4026;43.652;24.906;2023-04-27T03:19:52;98944.09;;;7.30;100.00
7962;BME280;4026;43.652;24.906;2023-04-27T03:22:19;98956.59;;;7.33;100.00
7962;BME280;4026;43.652;24.906;2023-04-27T03:24:47;98967.69;;;7.18;100.00
7962;BME280;4026;43.652;24.906;2023-04-27T03:27:14;98964.63;;;7.13;100.00
7962;BME280;4026;43.652;24.906;2023-04-27T03:29:41;98967.84;;;7.29;100.00
7962;BME280;4026;43.652;24.906;2023-04-27T03:32:07;98976.41;;;7.28;100.00
7962;BME280;4026;43.652;24.906;2023-04-27T03:34:34;98972.56;;;7.35;100.00
7962;BME280;4026;43.652;24.906;2023-04-27T03:37:01;98987.13;;;7.33;100.00
7962;BME280;4026;43.652;24.906;2023-04-27T03:39:28;98979.50;;;7.33;100.00
7962;BME280;4026;43.652;24.906;2023-04-27T03:41:56;98986.66;;;7.26;100.00
7962;BME280;4026;43.652;24.906;2023-04-27T03:44:23;98986.28;;;7.18;100.00
7962;BME280;4026;43.652;24.906;2023-04-27T03:46:50;98985.13;;;7.24;100.00
7962;BME280;4026;43.652;24.906;2023-04-27T03:49:17;98979.34;;;7.08;100.00
7962;BME280;4026;43.652;24.906;2023-04-27T03:51:43;98988.94;;;7.17;100.00
7962;BME280;4026;43.652;24.906;2023-04-27T03:54:10;98988.56;;;7.23;100.00
7962;BME280;4026;43.652;24.906;2023-04-27T03:56:37;98989.13;;;7.28;100.00
7962;BME280;4026;43.652;24.906;2023-04-27T03:59:05;98992.47;;;7.29;100.00
7962;BME280;4026;43.652;24.906;2023-04-27T04:01:32;98996.25;;;7.50;100.00
7962;BME280;4026;43.652;24.906;2023-04-27T04:03:59;98999.72;;;7.49;100.00
7962;BME280;4026;43.652;24.906;2023-04-27T04:06:26;99002.34;;;7.47;100.00
7962;BME280;4026;43.652;24.906;2023-04-27T04:08:53;99002.19;;;7.51;100.00
7962;BME280;4026;43.652;24.906;2023-04-27T04:11:20;98998.38;;;7.43;100.00
7962;BME280;4026;43.652;24.906;2023-04-27T04:13:47;99004.88;;;7.47;100.00
7962;BME280;4026;43.652;24.906;2023-04-27T04:16:15;99007.28;;;7.51;100.00
7962;BME280;4026;43.652;24.906;2023-04-27T04:18:42;99010.59;;;7.65;100.00
7962;BME280;4026;43.652;24.906;2023-04-27T04:21:09;99016.69;;;7.63;100.00
7962;BME280;4026;43.652;24.906;2023-04-27T04:23:36;99015.56;;;7.81;100.00
7962;BME280;4026;43.652;24.906;2023-04-27T04:26:03;99018.53;;;7.88;100.00
7962;BME280;4026;43.652;24.906;2023-04-27T04:28:30;99020.06;;;7.90;100.00
7962;BME280;4026;43.652;24.906;2023-04-27T04:30:56;99019.06;;;7.93;100.00
7962;BME280;4026;43.652;24.906;2023-04-27T04:33:26;99030.88;;;7.94;100.00
7962;BME280;4026;43.652;24.906;2023-04-27T04:35:53;99036.03;;;8.07;100.00
7962;BME280;4026;43.652;24.906;2023-04-27T04:38:20;99035.41;;;8.03;100.00
7962;BME280;4026;43.652;24.906;2023-04-27T04:40:47;99041.25;;;7.91;100.00
7962;BME280;4026;43.652;24.906;2023-04-27T04:43:14;99034.34;;;7.93;100.00
7962;BME280;4026;43.652;24.906;2023-04-27T04:45:41;99032.09;;;7.88;100.00
7962;BME280;4026;43.652;24.906;2023-04-27T04:48:08;99038.81;;;7.89;100.00
7962;BME280;4026;43.652;24.906;2023-04-27T04:50:38;99044.75;;;8.03;100.00
7962;BME280;4026;43.652;24.906;2023-04-27T04:53:06;99046.78;;;7.98;100.00
7962;BME280;4026;43.652;24.906;2023-04-27T04:55:33;99063.88;;;7.96;100.00
7962;BME280;4026;43.652;24.906;2023-04-27T04:58:00;99046.13;;;7.67;100.00
7962;BME280;4026;43.652;24.906;2023-04-27T05:00:27;99057.63;;;7.87;100.00
7962;BME280;4026;43.652;24.906;2023-04-27T05:02:54;99062.84;;;7.71;100.00
7962;BME280;4026;43.652;24.906;2023-04-27T05:05:21;99061.56;;;7.64;100.00
7962;BME280;4026;43.652;24.906;2023-04-27T05:07:49;99060.13;;;7.74;100.00
7962;BME280;4026;43.652;24.906;2023-04-27T05:10:16;99065.22;;;7.74;100.00
7962;BME280;4026;43.652;24.906;2023-04-27T05:12:43;99070.81;;;7.65;100.00
7962;BME280;4026;43.652;24.906;2023-04-27T05:15:10;99069.41;;;7.61;100.00
7962;BME280;4026;43.652;24.906;2023-04-27T05:17:37;99072.84;;;7.60;100.00
7962;BME280;4026;43.652;24.906;2023-04-27T05:20:05;99075.56;;;7.71;100.00
7962;BME280;4026;43.652;24.906;2023-04-27T05:22:33;99077.19;;;7.72;100.00
7962;BME280;4026;43.652;24.906;2023-04-27T05:25:03;99081.56;;;7.56;100.00
7962;BME280;4026;43.652;24.906;2023-04-27T05:27:30;99073.03;;;7.42;100.00
7962;BME280;4026;43.652;24.906;2023-04-27T05:29:57;99075.41;;;7.45;100.00
7962;BME280;4026;43.652;24.906;2023-04-27T05:32:24;99082.66;;;7.52;100.00
7962;BME280;4026;43.652;24.906;2023-04-27T05:34:51;99081.75;;;7.53;100.00
7962;BME280;4026;43.652;24.906;2023-04-27T05:37:17;99090.91;;;7.69;100.00
7962;BME280;4026;43.652;24.906;2023-04-27T05:39:44;99091.16;;;7.79;100.00
7962;BME280;4026;43.652;24.906;2023-04-27T05:42:12;99095.56;;;7.77;100.00
7962;BME280;4026;43.652;24.906;2023-04-27T05:44:39;99105.38;;;7.55;100.00
7962;BME280;4026;43.652;24.906;2023-04-27T05:47:06;99104.47;;;7.70;100.00
7962;BME280;4026;43.652;24.906;2023-04-27T05:49:32;99103.22;;;7.63;100.00
7962;BME280;4026;43.652;24.906;2023-04-27T05:52:00;99108.09;;;7.66;100.00
7962;BME280;4026;43.652;24.906;2023-04-27T05:54:28;99109.38;;;7.73;100.00
7962;BME280;4026;43.652;24.906;2023-04-27T05:56:55;99110.66;;;7.66;100.00
7962;BME280;4026;43.652;24.906;2023-04-27T05:59:23;99114.25;;;7.76;100.00
7962;BME280;4026;43.652;24.906;2023-04-27T06:01:49;99116.28;;;7.57;100.00
7962;BME280;4026;43.652;24.906;2023-04-27T06:04:17;99119.91;;;7.53;100.00
7962;BME280;4026;43.652;24.906;2023-04-27T06:06:43;99118.28;;;7.52;100.00
7962;BME280;4026;43.652;24.906;2023-04-27T06:09:10;99117.38;;;7.53;100.00
7962;BME280;4026;43.652;24.906;2023-04-27T06:11:37;99124.00;;;7.69;100.00
7962;BME280;4026;43.652;24.906;2023-04-27T06:14:04;99119.34;;;7.76;100.00
7962;BME280;4026;43.652;24.906;2023-04-27T06:16:32;99109.38;;;7.73;100.00
7962;BME280;4026;43.652;24.906;2023-04-27T06:18:59;99107.19;;;7.81;100.00
7962;BME280;4026;43.652;24.906;2023-04-27T06:21:25;99107.94;;;8.10;100.00
7962;BME280;4026;43.652;24.906;2023-04-27T06:23:52;99107.25;;;8.35;100.00
7962;BME280;4026;43.652;24.906;2023-04-27T06:26:19;99091.22;;;8.48;100.00
7962;BME280;4026;43.652;24.906;2023-04-27T06:28:46;99091.28;;;8.46;100.00
7962;BME280;4026;43.652;24.906;2023-04-27T06:31:13;99085.53;;;8.57;100.00
7962;BME280;4026;43.652;24.906;2023-04-27T06:33:41;99087.53;;;8.52;100.00
7962;BME280;4026;43.652;24.906;2023-04-27T06:36:08;99090.81;;;8.54;100.00
7962;BME280;4026;43.652;24.906;2023-04-27T06:38:35;99086.44;;;8.56;100.00
7962;BME280;4026;43.652;24.906;2023-04-27T06:41:01;99092.69;;;8.65;100.00
7962;BME280;4026;43.652;24.906;2023-04-27T06:43:28;99089.94;;;8.41;100.00
7962;BME280;4026;43.652;24.906;2023-04-27T06:45:55;99092.66;;;8.37;100.00
7962;BME280;4026;43.652;24.906;2023-04-27T06:48:22;99099.00;;;8.59;100.00
7962;BME280;4026;43.652;24.906;2023-04-27T06:50:51;99103.91;;;8.62;100.00
7962;BME280;4026;43.652;24.906;2023-04-27T06:53:17;99104.69;;;8.50;100.00
7962;BME280;4026;43.652;24.906;2023-04-27T06:55:44;99099.78;;;8.47;100.00
7962;BME280;4026;43.652;24.906;2023-04-27T06:58:11;99109.41;;;8.69;100.00
7962;BME280;4026;43.652;24.906;2023-04-27T07:00:38;99115.13;;;8.72;100.00
7962;BME280;4026;43.652;24.906;2023-04-27T07:03:05;99105.72;;;8.60;100.00
7962;BME280;4026;43.652;24.906;2023-04-27T07:05:32;99107.38;;;8.61;100.00
7962;BME280;4026;43.652;24.906;2023-04-27T07:08:01;99110.22;;;8.69;100.00
7962;BME280;4026;43.652;24.906;2023-04-27T07:10:28;99117.78;;;8.83;100.00
7962;BME280;4026;43.652;24.906;2023-04-27T07:12:54;99123.97;;;9.06;100.00
7962;BME280;4026;43.652;24.906;2023-04-27T07:15:22;99117.72;;;8.85;100.00
7962;BME280;4026;43.652;24.906;2023-04-27T07:17:50;99118.84;;;9.06;100.00
7962;BME280;4026;43.652;24.906;2023-04-27T07:20:18;99125.41;;;9.11;100.00
7962;BME280;4026;43.652;24.906;2023-04-27T07:22:45;99117.44;;;9.41;100.00
7962;BME280;4026;43.652;24.906;2023-04-27T07:25:13;99124.06;;;9.56;100.00
7962;BME280;4026;43.652;24.906;2023-04-27T07:27:40;99126.03;;;9.40;100.00
7962;BME280;4026;43.652;24.906;2023-04-27T07:30:07;99130.63;;;9.35;100.00
7962;BME280;4026;43.652;24.906;2023-04-27T07:32:38;99124.19;;;9.42;100.00
7962;BME280;4026;43.652;24.906;2023-04-27T07:35:05;99135.31;;;10.03;100.00
7962;BME280;4026;43.652;24.906;2023-04-27T07:37:33;99123.59;;;10.01;100.00
7962;BME280;4026;43.652;24.906;2023-04-27T07:40:02;99127.31;;;10.20;100.00
7962;BME280;4026;43.652;24.906;2023-04-27T07:42:37;99125.19;;;10.27;100.00
7962;BME280;4026;43.652;24.906;2023-04-27T07:45:06;99123.78;;;10.47;100.00
7962;BME280;4026;43.652;24.906;2023-04-27T07:47:34;99126.13;;;10.13;100.00
7962;BME280;4026;43.652;24.906;2023-04-27T07:50:01;99111.63;;;10.38;100.00
7962;BME280;4026;43.652;24.906;2023-04-27T07:52:28;99117.00;;;10.46;100.00
7962;BME280;4026;43.652;24.906;2023-04-27T07:54:55;99123.78;;;10.82;100.00
7962;BME280;4026;43.652;24.906;2023-04-27T07:57:22;99130.69;;;11.04;100.00
7962;BME280;4026;43.652;24.906;2023-04-27T07:59:50;99123.16;;;11.03;100.00
7962;BME280;4026;43.652;24.906;2023-04-27T08:02:17;99119.75;;;11.02;100.00
7962;BME280;4026;43.652;24.906;2023-04-27T08:04:44;99121.41;;;11.03;100.00
7962;BME280;4026;43.652;24.906;2023-04-27T08:07:11;99127.03;;;11.42;100.00
7962;BME280;4026;43.652;24.906;2023-04-27T08:09:38;99131.06;;;11.11;100.00
7962;BME280;4026;43.652;24.906;2023-04-27T08:12:05;99132.13;;;11.20;100.00
7962;BME280;4026;43.652;24.906;2023-04-27T08:14:33;99124.28;;;10.99;100.00
7962;BME280;4026;43.652;24.906;2023-04-27T08:17:01;99123.31;;;10.77;100.00
7962;BME280;4026;43.652;24.906;2023-04-27T08:19:28;99125.34;;;11.07;100.00
7962;BME280;4026;43.652;24.906;2023-04-27T08:21:55;99125.44;;;11.64;100.00
7962;BME280;4026;43.652;24.906;2023-04-27T08:24:22;99125.78;;;11.82;100.00
7962;BME280;4026;43.652;24.906;2023-04-27T08:26:49;99120.28;;;12.09;100.00
7962;BME280;4026;43.652;24.906;2023-04-27T08:29:15;99125.41;;;12.09;100.00
7962;BME280;4026;43.652;24.906;2023-04-27T08:31:42;99116.09;;;11.29;100.00
7962;BME280;4026;43.652;24.906;2023-04-27T08:34:11;99118.47;;;11.88;100.00
7962;BME280;4026;43.652;24.906;2023-04-27T08:36:37;99121.66;;;12.24;100.00
7962;BME280;4026;43.652;24.906;2023-04-27T08:39:04;99119.84;;;12.47;100.00
7962;BME280;4026;43.652;24.906;2023-04-27T08:41:32;99118.22;;;12.46;100.00
7962;BME280;4026;43.652;24.906;2023-04-27T08:43:59;99117.94;;;12.81;100.00
7962;BME280;4026;43.652;24.906;2023-04-27T08:46:26;99118.13;;;12.36;100.00
7962;BME280;4026;43.652;24.906;2023-04-27T08:48:53;99120.56;;;12.38;100.00
7962;BME280;4026;43.652;24.906;2023-04-27T08:51:22;99118.19;;;12.14;100.00
7962;BME280;4026;43.652;24.906;2023-04-27T08:53:53;99117.25;;;12.04;100.00
7962;BME280;4026;43.652;24.906;2023-04-27T08:56:22;99106.19;;;12.14;100.00
7962;BME280;4026;43.652;24.906;2023-04-27T08:58:49;99105.38;;;12.14;100.00
7962;BME280;4026;43.652;24.906;2023-04-27T09:01:16;99109.25;;;12.40;100.00
7962;BME280;4026;43.652;24.906;2023-04-27T09:03:43;99110.47;;;12.25;100.00
7962;BME280;4026;43.652;24.906;2023-04-27T09:06:11;99110.63;;;12.44;100.00
7962;BME280;4026;43.652;24.906;2023-04-27T09:08:46;99103.63;;;12.46;100.00
7962;BME280;4026;43.652;24.906;2023-04-27T09:11:14;99106.31;;;12.77;100.00
7962;BME280;4026;43.652;24.906;2023-04-27T09:13:43;99107.19;;;12.87;100.00
7962;BME280;4026;43.652;24.906;2023-04-27T09:16:11;99109.94;;;12.96;100.00
7962;BME280;4026;43.652;24.906;2023-04-27T09:18:41;99107.44;;;12.84;100.00
7962;BME280;4026;43.652;24.906;2023-04-27T09:21:08;99103.16;;;12.53;100.00
7962;BME280;4026;43.652;24.906;2023-04-27T09:23:37;99104.59;;;12.45;100.00
7962;BME280;4026;43.652;24.906;2023-04-27T09:26:07;99098.25;;;12.50;100.00
7962;BME280;4026;43.652;24.906;2023-04-27T09:28:34;99095.00;;;12.48;100.00
7962;BME280;4026;43.652;24.906;2023-04-27T09:31:03;99103.44;;;12.91;100.00
7962;BME280;4026;43.652;24.906;2023-04-27T09:33:32;99099.53;;;12.76;100.00
7962;BME280;4026;43.652;24.906;2023-04-27T09:36:01;99091.97;;;12.75;100.00
7962;BME280;4026;43.652;24.906;2023-04-27T09:38:28;99098.38;;;12.80;100.00
7962;BME280;4026;43.652;24.906;2023-04-27T09:40:56;99094.16;;;13.21;100.00
7962;BME280;4026;43.652;24.906;2023-04-27T09:43:25;99089.47;;;12.84;100.00
7962;BME280;4026;43.652;24.906;2023-04-27T09:45:53;99085.63;;;13.00;100.00
7962;BME280;4026;43.652;24.906;2023-04-27T09:48:21;99089.03;;;13.21;100.00
7962;BME280;4026;43.652;24.906;2023-04-27T09:50:50;99091.94;;;13.68;100.00
7962;BME280;4026;43.652;24.906;2023-04-27T09:53:18;99076.44;;;13.79;100.00
7962;BME280;4026;43.652;24.906;2023-04-27T09:55:53;99078.75;;;14.02;100.00
7962;BME280;4026;43.652;24.906;2023-04-27T09:58:47;99090.69;;;14.13;99.57
7962;BME280;4026;43.652;24.906;2023-04-27T10:01:25;99087.53;;;13.90;99.86
7962;BME280;4026;43.652;24.906;2023-04-27T10:04:04;99077.34;;;13.78;100.00
7962;BME280;4026;43.652;24.906;2023-04-27T10:06:51;99074.66;;;13.70;98.51
7962;BME280;4026;43.652;24.906;2023-04-27T10:09:20;99083.53;;;14.26;100.00
7962;BME280;4026;43.652;24.906;2023-04-27T10:11:49;99078.13;;;14.39;100.00
7962;BME280;4026;43.652;24.906;2023-04-27T10:14:19;99077.75;;;14.53;98.88
7962;BME280;4026;43.652;24.906;2023-04-27T10:16:51;99074.72;;;14.19;97.27
7962;BME280;4026;43.652;24.906;2023-04-27T10:19:19;99072.03;;;14.49;100.00
7962;BME280;4026;43.652;24.906;2023-04-27T10:21:54;99072.53;;;14.92;96.21
7962;BME280;4026;43.652;24.906;2023-04-27T10:24:36;99075.66;;;15.33;90.66
7962;BME280;4026;43.652;24.906;2023-04-27T10:27:05;99083.78;;;15.38;88.96
7962;BME280;4026;43.652;24.906;2023-04-27T10:29:38;99078.47;;;15.49;84.78
7962;BME280;4026;43.652;24.906;2023-04-27T10:32:07;99070.53;;;15.88;84.84
7962;BME280;4026;43.652;24.906;2023-04-27T10:34:34;99085.44;;;15.67;79.74
7962;BME280;4026;43.652;24.906;2023-04-27T10:37:07;99080.84;;;15.88;79.87
7962;BME280;4026;43.652;24.906;2023-04-27T10:39:35;99080.66;;;16.17;84.65
7962;BME280;4026;43.652;24.906;2023-04-27T10:42:03;99081.94;;;16.31;81.32
7962;BME280;4026;43.652;24.906;2023-04-27T10:44:33;99083.09;;;16.55;78.25
7962;BME280;4026;43.652;24.906;2023-04-27T10:47:11;99086.28;;;16.84;76.03
7962;BME280;4026;43.652;24.906;2023-04-27T10:49:39;99084.81;;;17.08;74.77
7962;BME280;4026;43.652;24.906;2023-04-27T10:52:05;99083.41;;;17.13;78.26
7962;BME280;4026;43.652;24.906;2023-04-27T10:54:33;99080.38;;;17.60;80.20
7962;BME280;4026;43.652;24.906;2023-04-27T10:57:04;99084.50;;;17.79;70.51
7962;BME280;4026;43.652;24.906;2023-04-27T10:59:31;99071.66;;;18.20;70.28
7962;BME280;4026;43.652;24.906;2023-04-27T11:01:58;99073.09;;;18.15;66.71
7962;BME280;4026;43.652;24.906;2023-04-27T11:04:36;99075.50;;;17.83;66.56
7962;BME280;4026;43.652;24.906;2023-04-27T11:07:04;99078.44;;;17.62;73.31
7962;BME280;4026;43.652;24.906;2023-04-27T11:09:33;99078.78;;;17.33;65.85
7962;BME280;4026;43.652;24.906;2023-04-27T11:12:00;99079.97;;;17.39;61.31
7962;BME280;4026;43.652;24.906;2023-04-27T11:14:28;99078.00;;;17.75;67.83
7962;BME280;4026;43.652;24.906;2023-04-27T11:16:55;99079.16;;;17.38;68.77
7962;BME280;4026;43.652;24.906;2023-04-27T11:19:22;99073.31;;;17.36;72.31
7962;BME280;4026;43.652;24.906;2023-04-27T11:21:50;99073.22;;;17.46;75.36
7962;BME280;4026;43.652;24.906;2023-04-27T11:24:17;99069.38;;;17.24;68.63
7962;BME280;4026;43.652;24.906;2023-04-27T11:26:50;99076.50;;;17.22;62.55
7962;BME280;4026;43.652;24.906;2023-04-27T11:29:17;99076.81;;;16.93;62.72
7962;BME280;4026;43.652;24.906;2023-04-27T11:31:45;99074.38;;;16.91;61.49
7962;BME280;4026;43.652;24.906;2023-04-27T11:34:17;99082.56;;;17.13;61.46
7962;BME280;4026;43.652;24.906;2023-04-27T11:36:56;99088.53;;;17.39;61.10
7962;BME280;4026;43.652;24.906;2023-04-27T11:39:26;99087.97;;;16.93;67.68
7962;BME280;4026;43.652;24.906;2023-04-27T11:41:53;99083.03;;;17.08;66.04
7962;BME280;4026;43.652;24.906;2023-04-27T11:44:24;99083.59;;;17.20;66.61
7962;BME280;4026;43.652;24.906;2023-04-27T11:46:52;99082.19;;;17.00;67.88
7962;BME280;4026;43.652;24.906;2023-04-27T11:49:19;99082.44;;;16.88;69.36
7962;BME280;4026;43.652;24.906;2023-04-27T11:51:45;99086.91;;;16.86;69.43
7962;BME280;4026;43.652;24.906;2023-04-27T11:54:14;99079.28;;;16.59;66.80
7962;BME280;4026;43.652;24.906;2023-04-27T11:56:41;99077.97;;;16.19;66.81
7962;BME280;4026;43.652;24.906;2023-04-27T11:59:18;99083.56;;;15.69;69.12
7962;BME280;4026;43.652;24.906;2023-04-27T12:01:45;99079.84;;;15.81;70.32
7962;BME280;4026;43.652;24.906;2023-04-27T12:04:12;99078.81;;;15.92;71.15
7962;BME280;4026;43.652;24.906;2023-04-27T12:06:38;99081.22;;;16.21;75.66
7962;BME280;4026;43.652;24.906;2023-04-27T12:09:06;99084.69;;;16.12;69.17
7962;BME280;4026;43.652;24.906;2023-04-27T12:11:34;99079.28;;;16.23;72.32
7962;BME280;4026;43.652;24.906;2023-04-27T12:14:01;99071.41;;;15.79;73.50
7962;BME280;4026;43.652;24.906;2023-04-27T12:16:28;99073.81;;;15.90;74.19
7962;BME280;4026;43.652;24.906;2023-04-27T12:18:55;99075.63;;;15.80;75.13
7962;BME280;4026;43.652;24.906;2023-04-27T12:21:22;99076.66;;;15.59;75.76
7962;BME280;4026;43.652;24.906;2023-04-27T12:23:49;99083.16;;;15.63;75.39
7962;BME280;4026;43.652;24.906;2023-04-27T12:26:16;99077.53;;;15.40;75.63
7962;BME280;4026;43.652;24.906;2023-04-27T12:28:44;99070.72;;;15.49;78.23
7962;BME280;4026;43.652;24.906;2023-04-27T12:31:13;99067.53;;;15.75;76.45
7962;BME280;4026;43.652;24.906;2023-04-27T12:33:43;99066.44;;;15.95;75.06
7962;BME280;4026;43.652;24.906;2023-04-27T12:36:10;99069.13;;;16.03;78.03
7962;BME280;4026;43.652;24.906;2023-04-27T12:38:36;99060.91;;;16.26;73.61
7962;BME280;4026;43.652;24.906;2023-04-27T12:41:03;99058.06;;;16.29;69.94
7962;BME280;4026;43.652;24.906;2023-04-27T12:43:30;99054.88;;;16.53;69.68
7962;BME280;4026;43.652;24.906;2023-04-27T12:45:58;99048.56;;;16.29;66.39
7962;BME280;4026;43.652;24.906;2023-04-27T12:48:25;99050.38;;;16.37;56.31
7962;BME280;4026;43.652;24.906;2023-04-27T12:50:52;99052.56;;;16.68;57.37
7962;BME280;4026;43.652;24.906;2023-04-27T12:53:19;99061.41;;;16.83;65.57
7962;BME280;4026;43.652;24.906;2023-04-27T12:55:47;99060.97;;;16.70;61.11
7962;BME280;4026;43.652;24.906;2023-04-27T12:58:14;99053.28;;;16.78;54.61
7962;BME280;4026;43.652;24.906;2023-04-27T13:00:40;99061.28;;;16.67;54.92
7962;BME280;4026;43.652;24.906;2023-04-27T13:03:09;99055.81;;;16.70;55.40
7962;BME280;4026;43.652;24.906;2023-04-27T13:05:35;99049.25;;;16.75;63.26
7962;BME280;4026;43.652;24.906;2023-04-27T13:08:02;99047.00;;;17.07;63.81
7962;BME280;4026;43.652;24.906;2023-04-27T13:10:30;99053.28;;;16.96;57.99
7962;BME280;4026;43.652;24.906;2023-04-27T13:12:56;99058.13;;;17.33;58.02